Time;durP1;ratioP1;P1;durP2;ratioP2;P2;SDS_P1;SDS_P2;PMS_P1;PMS_P2;Temp;Humidity;BMP_temperature;BMP_pressure;BME280_temperature;BME280_humidity;BME280_pressure;Samples;Min_cycle;Max_cycle;Signal;HPM_P1;HPM_P2
2023/05/11 00:03:59;;;;;;;4.40;3.38;;;18.10;75.10;;;;;;10207252;29;20082;-55
2023/05/11 00:09:00;;;;;;;5.22;3.78;;;18.20;75.10;;;;;;10208035;29;20020;-55
2023/05/11 00:14:01;;;;;;;3.90;3.50;;;18.20;75.20;;;;;;10206860;29;20059;-54
2023/05/11 00:19:01;;;;;;;4.45;3.45;;;18.10;75.10;;;;;;10180511;29;20111;-54
2023/05/11 00:24:02;;;;;;;3.85;2.80;;;18.10;75.10;;;;;;10178331;29;20111;-55
2023/05/11 00:29:03;;;;;;;4.30;3.13;;;18.10;75.10;;;;;;10192037;29;20050;-56
2023/05/11 00:34:03;;;;;;;5.35;3.40;;;18.10;75.10;;;;;;10180791;29;20106;-56
2023/05/11 00:39:04;;;;;;;3.58;2.72;;;18.10;75.10;;;;;;10178657;29;20026;-56
2023/05/11 00:44:05;;;;;;;3.63;3.10;;;18.10;75.10;;;;;;10205573;29;20162;-55
2023/05/11 00:49:06;;;;;;;4.22;3.13;;;18.10;75.00;;;;;;10205180;29;20044;-56
2023/05/11 00:54:13;;;;;;;4.25;3.08;;;18.10;75.10;;;;;;10189532;29;20543;-54
2023/05/11 00:59:15;;;;;;;5.15;3.47;;;18.10;75.00;;;;;;10184967;29;20024;-56
2023/05/11 01:04:16;;;;;;;4.28;3.45;;;18.10;75.00;;;;;;10165223;29;20555;-56
2023/05/11 01:10:19;;;;;;;4.85;3.20;;;18.10;75.00;;;;;;10165525;29;20083;-55
2023/05/11 01:15:47;;;;;;;4.82;3.13;;;18.10;75.10;;;;;;10121265;29;20029;-57
2023/05/11 01:20:52;;;;;;;3.60;2.63;;;18.10;75.00;;;;;;10160658;29;20078;-56
2023/05/11 01:26:48;;;;;;;5.95;3.65;;;18.10;75.00;;;;;;10165351;29;20039;-55
2023/05/11 01:31:49;;;;;;;6.13;4.40;;;18.10;75.00;;;;;;10174495;29;20027;-54
2023/05/11 01:37:08;;;;;;;6.32;4.07;;;18.00;75.00;;;;;;10205052;29;20051;-55
2023/05/11 01:42:09;;;;;;;5.50;3.47;;;18.00;75.00;;;;;;10149121;29;20506;-56
2023/05/11 01:47:12;;;;;;;5.93;3.92;;;18.00;74.90;;;;;;10166239;29;20087;-55
2023/05/11 01:52:15;;;;;;;6.50;4.50;;;18.10;74.90;;;;;;10200299;29;20101;-56
2023/05/11 01:57:16;;;;;;;5.47;3.55;;;18.00;74.90;;;;;;10169488;29;20023;-55
2023/05/11 02:02:18;;;;;;;5.57;3.97;;;18.00;74.90;;;;;;10190215;29;20656;-56
2023/05/11 02:07:22;;;;;;;4.93;3.65;;;18.00;74.90;;;;;;10204089;29;20100;-56
2023/05/11 02:12:24;;;;;;;5.47;3.28;;;18.00;75.00;;;;;;10187670;29;20024;-54
2023/05/11 02:17:26;;;;;;;5.07;3.75;;;18.00;74.90;;;;;;10203097;29;20026;-57
2023/05/11 02:22:28;;;;;;;6.13;3.97;;;18.00;74.90;;;;;;10178672;29;20100;-54
2023/05/11 02:27:29;;;;;;;4.50;3.55;;;18.00;74.90;;;;;;10163758;29;20111;-55
2023/05/11 02:32:33;;;;;;;5.57;4.30;;;18.00;74.90;;;;;;10163153;29;20051;-55
2023/05/11 02:37:42;;;;;;;4.93;3.42;;;18.00;74.90;;;;;;10148032;29;20115;-57
2023/05/11 02:42:46;;;;;;;5.93;4.20;;;17.90;74.80;;;;;;10163325;29;20561;-55
2023/05/11 02:47:53;;;;;;;6.43;3.60;;;18.00;74.90;;;;;;10170079;29;20025;-56
2023/05/11 02:52:58;;;;;;;5.47;3.85;;;17.90;74.80;;;;;;10170538;29;20048;-52
2023/05/11 02:57:59;;;;;;;5.63;3.88;;;17.90;74.80;;;;;;10170387;29;20104;-56
2023/05/11 03:02:59;;;;;;;5.40;4.10;;;17.90;74.80;;;;;;10170170;29;20123;-55
2023/05/11 03:08:01;;;;;;;7.65;4.45;;;18.00;74.80;;;;;;10170030;29;20024;-56
2023/05/11 03:13:02;;;;;;;6.45;4.53;;;18.00;74.80;;;;;;10170509;29;20020;-55
2023/05/11 03:18:05;;;;;;;5.57;4.07;;;17.90;74.80;;;;;;10208938;29;20083;-56
2023/05/11 03:23:08;;;;;;;6.78;4.80;;;17.90;74.80;;;;;;10191184;29;20116;-56
2023/05/11 03:28:10;;;;;;;6.25;4.03;;;17.90;74.70;;;;;;10174229;29;20027;-56
2023/05/11 03:33:10;;;;;;;6.35;4.32;;;17.90;74.80;;;;;;10190032;29;20028;-54
2023/05/11 03:38:13;;;;;;;5.60;3.95;;;17.90;74.80;;;;;;10187476;29;20024;-56
2023/05/11 03:43:16;;;;;;;5.43;4.13;;;17.90;74.80;;;;;;10186204;29;20037;-56
2023/05/11 03:48:18;;;;;;;7.45;4.78;;;17.90;74.80;;;;;;10171474;29;20040;-56
2023/05/11 03:53:19;;;;;;;7.63;4.82;;;17.90;74.80;;;;;;10181354;29;20519;-54
2023/05/11 03:58:21;;;;;;;6.53;4.97;;;17.90;74.70;;;;;;10174089;29;20040;-57
2023/05/11 04:03:22;;;;;;;5.78;4.18;;;17.90;74.70;;;;;;10169619;29;20112;-56
2023/05/11 04:08:22;;;;;;;8.18;5.25;;;17.80;74.70;;;;;;10166442;29;20592;-56
2023/05/11 04:13:23;;;;;;;7.95;5.60;;;17.90;74.80;;;;;;10168937;29;20039;-55
2023/05/11 04:18:24;;;;;;;8.43;5.43;;;17.90;74.80;;;;;;10172446;28;20119;-56
2023/05/11 04:23:24;;;;;;;9.43;5.85;;;17.90;74.70;;;;;;10197632;29;20063;-55
2023/05/11 04:28:26;;;;;;;7.10;5.05;;;17.90;74.70;;;;;;10202698;29;20023;-55
2023/05/11 04:33:27;;;;;;;7.45;4.53;;;17.90;74.70;;;;;;10205263;29;20024;-55
2023/05/11 04:38:28;;;;;;;9.23;6.35;;;17.80;74.60;;;;;;10198140;29;20103;-54
2023/05/11 04:43:28;;;;;;;7.70;5.13;;;17.90;74.70;;;;;;10217230;29;20039;-56
2023/05/11 04:48:29;;;;;;;7.65;6.13;;;17.90;75.00;;;;;;10191871;29;20075;-54
2023/05/11 04:53:30;;;;;;;17.77;6.25;;;17.90;75.30;;;;;;10199794;29;20071;-55
2023/05/11 04:58:31;;;;;;;14.27;6.65;;;18.10;75.30;;;;;;10205345;29;20616;-55
2023/05/11 05:03:31;;;;;;;16.15;6.55;;;18.20;74.60;;;;;;10206448;29;20114;-55
2023/05/11 05:08:32;;;;;;;17.88;7.00;;;18.30;75.90;;;;;;10205592;29;20059;-57
2023/05/11 05:13:33;;;;;;;27.60;7.53;;;18.30;75.40;;;;;;10220587;29;20091;-56
2023/05/11 05:18:33;;;;;;;22.75;6.53;;;18.20;75.30;;;;;;10220470;29;20147;-58
2023/05/11 05:23:34;;;;;;;23.02;8.20;;;18.10;75.30;;;;;;10208038;29;20483;-55
2023/05/11 05:28:34;;;;;;;30.60;9.52;;;18.10;75.30;;;;;;10205403;29;20159;-58
2023/05/11 05:33:35;;;;;;;33.20;9.27;;;18.20;75.40;;;;;;10205215;29;20078;-56
2023/05/11 05:38:36;;;;;;;17.13;6.53;;;18.10;75.50;;;;;;10205200;29;20127;-56
2023/05/11 05:43:36;;;;;;;16.13;6.65;;;18.10;75.30;;;;;;10206491;29;20088;-55
2023/05/11 05:48:37;;;;;;;21.02;6.28;;;18.10;75.70;;;;;;10222013;28;20090;-57
2023/05/11 05:53:38;;;;;;;25.20;7.28;;;18.00;75.60;;;;;;10199988;29;20483;-55
2023/05/11 05:58:39;;;;;;;20.33;7.90;;;18.00;75.70;;;;;;10200827;29;20110;-56
2023/05/11 06:03:39;;;;;;;14.68;6.30;;;18.00;75.50;;;;;;10201490;29;20027;-56
2023/05/11 06:08:40;;;;;;;25.63;9.07;;;18.10;75.30;;;;;;10206313;29;20016;-51
2023/05/11 06:13:41;;;;;;;28.42;8.52;;;18.00;75.60;;;;;;10214391;29;20518;-54
2023/05/11 06:18:41;;;;;;;18.60;9.23;;;18.10;75.90;;;;;;10207351;29;20201;-54
2023/05/11 06:23:42;;;;;;;16.65;7.75;;;18.10;75.40;;;;;;10208086;29;20111;-55
2023/05/11 06:28:43;;;;;;;18.75;7.93;;;18.00;75.00;;;;;;10209733;29;20043;-54
2023/05/11 06:33:43;;;;;;;15.80;7.25;;;18.00;74.80;;;;;;10203218;29;20076;-54
2023/05/11 06:38:44;;;;;;;15.27;7.00;;;17.90;75.10;;;;;;10221615;29;20122;-53
2023/05/11 06:43:44;;;;;;;15.68;7.63;;;17.90;75.00;;;;;;10209001;29;20071;-50
2023/05/11 06:48:45;;;;;;;13.93;6.97;;;18.00;74.90;;;;;;10207278;29;20107;-54
2023/05/11 06:53:46;;;;;;;15.27;7.35;;;17.90;74.90;;;;;;10217752;29;20118;-54
2023/05/11 06:58:47;;;;;;;17.13;7.38;;;17.90;74.80;;;;;;10195769;29;20039;-53
2023/05/11 07:03:48;;;;;;;11.10;6.07;;;17.90;74.80;;;;;;10231194;28;20631;-54
2023/05/11 07:08:48;;;;;;;16.00;7.88;;;17.90;74.80;;;;;;10226767;28;20470;-55
2023/05/11 07:13:49;;;;;;;10.52;6.65;;;17.90;74.80;;;;;;10212200;29;20102;-53
2023/05/11 07:18:50;;;;;;;13.50;7.25;;;17.90;74.70;;;;;;10208027;29;20435;-52
2023/05/11 07:23:51;;;;;;;15.68;7.57;;;17.90;74.70;;;;;;10168998;28;20487;-62
2023/05/11 07:28:52;;;;;;;15.90;8.10;;;17.90;74.70;;;;;;10218877;28;20027;-55
2023/05/11 07:33:52;;;;;;;12.02;6.35;;;18.00;74.70;;;;;;10219311;28;20111;-55
2023/05/11 07:38:53;;;;;;;12.00;6.18;;;18.00;74.70;;;;;;10196054;29;20054;-54
2023/05/11 07:43:54;;;;;;;10.38;6.53;;;18.00;74.60;;;;;;10193225;29;20550;-55
2023/05/11 07:48:55;;;;;;;11.55;7.20;;;18.00;75.00;;;;;;10207807;29;20052;-54
2023/05/11 07:53:56;;;;;;;11.25;6.75;;;18.00;75.10;;;;;;10206817;29;20028;-54
2023/05/11 07:58:56;;;;;;;12.60;6.03;;;18.00;75.00;;;;;;10207755;29;20503;-54
2023/05/11 08:03:57;;;;;;;11.70;7.18;;;18.00;75.00;;;;;;10207836;29;20040;-54
2023/05/11 08:08:58;;;;;;;14.27;7.70;;;18.00;75.00;;;;;;10212715;29;20463;-53
2023/05/11 08:13:59;;;;;;;12.80;7.82;;;18.10;75.10;;;;;;10238538;29;20842;-54
2023/05/11 08:18:59;;;;;;;12.35;7.40;;;18.00;75.00;;;;;;10242723;29;20110;-54
2023/05/11 08:24:00;;;;;;;12.45;7.57;;;18.10;75.00;;;;;;10222315;29;20448;-55
2023/05/11 08:29:00;;;;;;;12.52;7.97;;;18.10;74.90;;;;;;10204805;29;20051;-53
2023/05/11 08:34:02;;;;;;;11.20;7.30;;;18.10;74.90;;;;;;10223967;29;20034;-54
2023/05/11 08:39:02;;;;;;;13.07;8.60;;;18.10;74.80;;;;;;10205861;29;20032;-55
2023/05/11 08:44:04;;;;;;;12.15;7.70;;;18.20;74.70;;;;;;10205535;29;20027;-54
2023/05/11 08:49:07;;;;;;;9.57;6.80;;;18.20;74.70;;;;;;10214373;29;20075;-54
2023/05/11 08:54:08;;;;;;;11.20;8.50;;;18.20;74.60;;;;;;10231438;29;20024;-54
2023/05/11 08:59:10;;;;;;;11.32;7.88;;;18.30;74.60;;;;;;10205112;29;20070;-52
2023/05/11 09:04:12;;;;;;;14.75;8.75;;;18.20;74.60;;;;;;10219523;29;20431;-53
2023/05/11 09:09:13;;;;;;;10.02;8.38;;;18.30;74.60;;;;;;10205261;29;20024;-53
2023/05/11 09:14:13;;;;;;;13.80;9.32;;;18.30;74.60;;;;;;10207423;29;20027;-53
2023/05/11 09:19:15;;;;;;;10.93;8.38;;;18.30;74.60;;;;;;10208443;28;20031;-53
2023/05/11 09:24:18;;;;;;;12.95;8.35;;;18.30;74.60;;;;;;10204728;29;20047;-54
2023/05/11 09:29:20;;;;;;;12.77;8.23;;;18.30;74.50;;;;;;10203547;29;20087;-54
2023/05/11 09:34:22;;;;;;;10.73;8.10;;;18.20;74.50;;;;;;10204467;29;20030;-55
2023/05/11 09:39:33;;;;;;;10.30;7.60;;;18.20;74.70;;;;;;10218261;28;20067;-55
2023/05/11 09:44:33;;;;;;;13.05;8.27;;;18.30;74.70;;;;;;10193431;29;20216;-54
2023/05/11 09:49:34;;;;;;;11.15;8.43;;;18.30;74.70;;;;;;10215702;29;20379;-54
2023/05/11 09:54:42;;;;;;;12.82;7.35;;;18.30;74.60;;;;;;10203512;29;20024;-54
2023/05/11 09:59:43;;;;;;;10.25;7.53;;;18.30;74.60;;;;;;10209727;29;20015;-54
2023/05/11 10:04:43;;;;;;;9.55;7.15;;;18.20;74.50;;;;;;10211414;29;20559;-54
2023/05/11 10:09:44;;;;;;;10.57;8.32;;;18.30;75.20;;;;;;10189846;29;20510;-53
2023/05/11 10:14:45;;;;;;;11.68;7.85;;;18.20;74.60;;;;;;10213628;29;20102;-54
2023/05/11 10:19:47;;;;;;;8.93;7.15;;;18.30;74.60;;;;;;10198266;29;20065;-55
2023/05/11 10:24:50;;;;;;;9.95;7.32;;;18.30;74.50;;;;;;10208001;29;20402;-55
2023/05/11 10:29:51;;;;;;;9.32;7.78;;;18.30;74.60;;;;;;10203370;29;20027;-54
2023/05/11 10:34:51;;;;;;;10.15;6.95;;;18.30;74.60;;;;;;10223915;29;20035;-52
2023/05/11 10:39:52;;;;;;;10.05;7.70;;;18.20;74.50;;;;;;10208095;29;20019;-55
2023/05/11 10:45:30;;;;;;;9.13;7.03;;;18.20;74.60;;;;;;10149636;29;20066;-53
2023/05/11 10:50:58;;;;;;;11.93;7.40;;;18.20;75.20;;;;;;10195828;29;20047;-54
2023/05/11 10:56:12;;;;;;;11.05;7.60;;;18.20;74.50;;;;;;10201655;29;20079;-54
2023/05/11 11:01:36;;;;;;;9.15;6.35;;;18.20;74.60;;;;;;10206086;29;20539;-53
2023/05/11 11:06:42;;;;;;;10.10;7.13;;;18.20;74.80;;;;;;10202790;29;20075;-54
2023/05/11 11:11:46;;;;;;;15.52;8.15;;;18.20;74.80;;;;;;10212086;29;20368;-55
2023/05/11 11:17:14;;;;;;;9.52;7.40;;;18.20;75.00;;;;;;10206542;29;20027;-54
2023/05/11 11:22:33;;;;;;;10.02;7.32;;;18.10;74.50;;;;;;10195349;29;20040;-53
2023/05/11 11:27:40;;;;;;;8.70;7.03;;;18.10;74.70;;;;;;10220170;29;20048;-54
2023/05/11 11:32:40;;;;;;;9.68;7.95;;;18.20;74.80;;;;;;10205857;29;20024;-52
2023/05/11 11:38:02;;;;;;;10.07;7.82;;;18.10;74.80;;;;;;10221533;29;20115;-54
2023/05/11 11:43:18;;;;;;;13.35;8.15;;;18.20;75.00;;;;;;10205955;29;20478;-56
2023/05/11 11:48:34;;;;;;;10.00;7.30;;;18.20;74.70;;;;;;10221232;28;20088;-55
2023/05/11 11:53:40;;;;;;;10.98;7.72;;;18.10;74.70;;;;;;10200757;29;20513;-55
2023/05/11 11:58:41;;;;;;;11.00;8.05;;;18.10;74.80;;;;;;10207912;29;20082;-56
2023/05/11 12:03:45;;;;;;;12.48;8.70;;;18.10;74.90;;;;;;10217222;29;20051;-57
2023/05/11 12:08:46;;;;;;;10.48;8.10;;;18.10;74.90;;;;;;10183673;29;20710;-55
2023/05/11 12:13:48;;;;;;;9.65;8.10;;;18.10;75.00;;;;;;10209313;29;20115;-57
2023/05/11 12:18:55;;;;;;;10.60;8.38;;;18.10;75.00;;;;;;10198481;29;20403;-54
2023/05/11 12:24:00;;;;;;;10.80;8.50;;;18.10;75.00;;;;;;10206372;29;20035;-55
2023/05/11 12:29:11;;;;;;;9.95;8.43;;;18.10;74.90;;;;;;10217763;29;20098;-54
2023/05/11 12:34:17;;;;;;;8.95;7.70;;;18.10;74.90;;;;;;10218885;29;20474;-54
2023/05/11 12:39:24;;;;;;;11.57;8.15;;;18.10;75.10;;;;;;10244554;29;20112;-55
2023/05/11 12:44:26;;;;;;;10.23;8.15;;;18.10;74.80;;;;;;10229117;29;20118;-55
2023/05/11 12:49:27;;;;;;;9.63;8.02;;;18.10;74.80;;;;;;10234358;29;20060;-54
2023/05/11 12:54:36;;;;;;;11.18;7.50;;;18.20;74.80;;;;;;10204699;29;20028;-55
2023/05/11 12:59:39;;;;;;;8.43;7.15;;;18.20;74.80;;;;;;10201340;29;20518;-55
2023/05/11 13:04:41;;;;;;;10.95;7.88;;;18.20;74.80;;;;;;10199535;29;20048;-54
2023/05/11 13:09:42;;;;;;;8.88;6.85;;;18.20;74.80;;;;;;10204509;29;20654;-55
2023/05/11 13:14:49;;;;;;;8.38;7.38;;;18.20;74.80;;;;;;10205475;29;20019;-55
2023/05/11 13:19:49;;;;;;;8.38;6.90;;;18.20;74.70;;;;;;10203868;29;20031;-54
2023/05/11 13:25:01;;;;;;;10.05;6.78;;;18.20;74.80;;;;;;10205602;29;20122;-54
2023/05/11 13:30:05;;;;;;;7.28;6.30;;;18.20;75.40;;;;;;10206671;28;20027;-53
2023/05/11 13:35:07;;;;;;;9.20;6.43;;;18.20;74.80;;;;;;10222155;29;20016;-56
2023/05/11 13:40:09;;;;;;;7.05;5.30;;;18.20;74.80;;;;;;10234739;29;20016;-53
2023/05/11 13:45:10;;;;;;;7.45;6.05;;;18.20;74.90;;;;;;10194255;29;20575;-55
2023/05/11 13:50:11;;;;;;;8.13;6.45;;;18.20;74.90;;;;;;10202439;29;20044;-55
2023/05/11 13:55:12;;;;;;;8.57;6.15;;;18.20;74.80;;;;;;10203527;29;20110;-55
2023/05/11 14:00:13;;;;;;;7.03;6.32;;;18.20;74.80;;;;;;10203042;29;20034;-54
2023/05/11 14:05:15;;;;;;;8.13;6.07;;;18.20;74.80;;;;;;10215507;28;20103;-54
2023/05/11 14:10:16;;;;;;;8.52;5.88;;;18.20;74.90;;;;;;10200500;29;20032;-55
2023/05/11 14:15:17;;;;;;;6.85;5.65;;;18.20;74.80;;;;;;10227801;28;20040;-55
2023/05/11 14:20:18;;;;;;;7.70;6.05;;;18.30;74.80;;;;;;10242432;28;20438;-55
2023/05/11 14:25:18;;;;;;;6.22;5.10;;;18.20;74.70;;;;;;10232586;28;20038;-55
2023/05/11 14:30:20;;;;;;;6.53;5.05;;;18.20;74.80;;;;;;10263568;28;20078;-55
2023/05/11 14:35:20;;;;;;;8.15;6.18;;;18.20;74.80;;;;;;10246262;28;20504;-54
2023/05/11 14:40:21;;;;;;;8.77;5.80;;;18.30;74.80;;;;;;10245184;28;20089;-55
2023/05/11 14:45:22;;;;;;;6.25;5.25;;;18.20;74.80;;;;;;10249675;28;20027;-55
2023/05/11 14:50:23;;;;;;;9.38;6.55;;;18.20;74.90;;;;;;10233362;28;20098;-53
2023/05/11 14:55:23;;;;;;;6.78;5.35;;;18.30;74.90;;;;;;10250472;29;20130;-56
2023/05/11 15:00:24;;;;;;;6.10;4.70;;;18.30;74.80;;;;;;10250174;28;20666;-55
2023/05/11 15:05:26;;;;;;;6.25;5.38;;;18.30;74.70;;;;;;10276523;28;20054;-55
2023/05/11 15:10:26;;;;;;;5.75;4.82;;;18.30;75.40;;;;;;10233580;29;20109;-54
2023/05/11 15:15:27;;;;;;;5.47;4.93;;;18.30;74.80;;;;;;10249181;28;20258;-55
2023/05/11 15:20:28;;;;;;;6.65;5.47;;;18.30;74.70;;;;;;10249165;28;20070;-55
2023/05/11 15:25:29;;;;;;;6.13;4.60;;;18.30;74.80;;;;;;10249281;28;20035;-55
2023/05/11 15:30:29;;;;;;;8.23;4.82;;;18.30;74.90;;;;;;10248024;28;20050;-54
2023/05/11 15:35:30;;;;;;;5.95;4.65;;;18.30;74.90;;;;;;10250902;28;20340;-53
2023/05/11 15:40:31;;;;;;;7.05;4.68;;;18.30;75.00;;;;;;10247369;29;20487;-53
2023/05/11 15:45:32;;;;;;;5.75;4.97;;;18.30;74.90;;;;;;10270948;28;20055;-53
2023/05/11 15:50:32;;;;;;;6.93;4.38;;;18.30;74.90;;;;;;10300853;28;20047;-54
2023/05/11 15:55:33;;;;;;;5.25;4.40;;;18.20;74.90;;;;;;10300789;28;20102;-55
2023/05/11 16:00:34;;;;;;;5.20;4.25;;;18.20;75.00;;;;;;10301017;28;20109;-53
2023/05/11 16:05:36;;;;;;;5.80;4.32;;;18.20;75.00;;;;;;10293805;28;20106;-55
2023/05/11 16:10:37;;;;;;;8.88;4.00;;;18.20;75.20;;;;;;10302720;28;20019;-56
2023/05/11 16:15:37;;;;;;;6.35;3.97;;;18.30;75.40;;;;;;10287446;28;20050;-54
2023/05/11 16:20:38;;;;;;;9.07;5.15;;;18.30;75.30;;;;;;10267684;28;20016;-55
2023/05/11 16:25:39;;;;;;;10.75;4.65;;;18.60;75.00;;;;;;10229838;29;20031;-55
2023/05/11 16:30:39;;;;;;;7.05;4.40;;;18.70;74.70;;;;;;10247499;28;20110;-54
2023/05/11 16:35:40;;;;;;;15.45;4.63;;;18.70;74.80;;;;;;10231728;28;20059;-54
2023/05/11 16:40:41;;;;;;;15.82;5.05;;;18.90;74.60;;;;;;10244085;29;20778;-56
2023/05/11 16:45:42;;;;;;;12.95;5.55;;;19.00;74.90;;;;;;10246211;29;20070;-57
2023/05/11 16:50:43;;;;;;;11.32;4.90;;;18.90;75.80;;;;;;10242017;28;20035;-53
2023/05/11 16:55:44;;;;;;;18.70;5.65;;;18.90;76.00;;;;;;10225277;29;20035;-54
2023/05/11 17:00:45;;;;;;;34.92;6.13;;;18.90;76.20;;;;;;10228182;29;20601;-55
2023/05/11 17:05:46;;;;;;;18.60;6.55;;;18.90;76.10;;;;;;10242790;28;20455;-51
2023/05/11 17:10:47;;;;;;;16.90;6.22;;;18.80;76.10;;;;;;10245537;28;20106;-54
2023/05/11 17:15:47;;;;;;;16.92;5.30;;;18.70;76.30;;;;;;10250568;28;20043;-56
2023/05/11 17:20:53;;;;;;;13.13;5.50;;;18.70;76.60;;;;;;10234461;28;20052;-54
2023/05/11 17:25:54;;;;;;;29.58;6.10;;;18.70;76.70;;;;;;10267724;28;20038;-56
2023/05/11 17:30:54;;;;;;;24.67;5.70;;;18.90;76.70;;;;;;10274110;28;20811;-55
2023/05/11 17:35:55;;;;;;;18.33;5.97;;;19.00;75.60;;;;;;10262291;28;20019;-55
2023/05/11 17:41:04;;;;;;;26.55;7.45;;;18.70;76.20;;;;;;10227216;28;20111;-55
2023/05/11 17:46:05;;;;;;;21.65;6.28;;;18.60;76.70;;;;;;10258302;28;20074;-56
2023/05/11 17:51:06;;;;;;;14.13;5.10;;;18.50;76.90;;;;;;10215259;28;20724;-55
2023/05/11 17:56:08;;;;;;;22.92;6.28;;;18.50;76.90;;;;;;10238206;28;20126;-55
2023/05/11 18:01:12;;;;;;;15.60;4.85;;;18.50;77.00;;;;;;10247431;28;20093;-55
2023/05/11 18:06:13;;;;;;;18.02;5.18;;;18.50;76.80;;;;;;10286903;28;20011;-55
2023/05/11 18:11:14;;;;;;;16.95;5.55;;;18.60;76.80;;;;;;10258221;28;20110;-54
2023/05/11 18:16:16;;;;;;;15.13;5.30;;;18.50;76.80;;;;;;10224910;28;20146;-54
2023/05/11 18:21:17;;;;;;;12.13;4.88;;;18.50;76.80;;;;;;10251641;28;20066;-57
2023/05/11 18:26:20;;;;;;;14.45;4.63;;;18.50;77.00;;;;;;10234426;28;20094;-55
2023/05/11 18:31:21;;;;;;;15.20;4.95;;;18.60;77.00;;;;;;10234644;29;20499;-54
2023/05/11 18:36:22;;;;;;;12.10;5.30;;;18.50;76.90;;;;;;10254199;28;20027;-55
2023/05/11 18:41:22;;;;;;;14.23;5.15;;;18.50;76.90;;;;;;10251391;29;20023;-55
2023/05/11 18:46:23;;;;;;;9.00;4.50;;;18.40;76.80;;;;;;10233540;28;20083;-54
2023/05/11 18:51:25;;;;;;;12.68;4.25;;;18.40;76.80;;;;;;10250390;28;20083;-54
2023/05/11 18:56:25;;;;;;;8.70;5.05;;;18.40;76.90;;;;;;10233412;28;20030;-55
2023/05/11 19:01:26;;;;;;;8.35;4.53;;;18.40;77.10;;;;;;10279971;28;20134;-54
2023/05/11 19:06:27;;;;;;;15.13;4.50;;;18.40;77.10;;;;;;10232481;28;20107;-55
2023/05/11 19:11:27;;;;;;;10.50;4.72;;;18.40;77.10;;;;;;10225262;28;20095;-54
2023/05/11 19:16:31;;;;;;;10.07;4.75;;;18.40;77.20;;;;;;10247865;29;20494;-55
2023/05/11 19:21:34;;;;;;;9.73;3.65;;;18.40;77.20;;;;;;10236669;28;20031;-54
2023/05/11 19:26:37;;;;;;;8.63;4.45;;;18.30;77.10;;;;;;10248621;28;20099;-55
2023/05/11 19:31:37;;;;;;;5.03;3.70;;;18.30;77.00;;;;;;10249163;28;21532;-54
2023/05/11 19:36:38;;;;;;;7.65;3.92;;;18.40;77.10;;;;;;10256939;28;20015;-55
2023/05/11 19:41:39;;;;;;;9.98;4.28;;;18.30;77.10;;;;;;10225350;29;20547;-55
2023/05/11 19:46:45;;;;;;;10.43;4.18;;;18.30;77.00;;;;;;10247710;28;20122;-55
2023/05/11 19:51:45;;;;;;;9.40;4.20;;;18.20;77.00;;;;;;10248012;28;20039;-53
2023/05/11 19:56:46;;;;;;;7.47;4.00;;;18.20;77.00;;;;;;10239169;28;20612;-55
2023/05/11 20:01:47;;;;;;;7.35;3.30;;;18.20;76.80;;;;;;10255791;28;20129;-54
2023/05/11 20:06:47;;;;;;;5.93;3.00;;;18.10;76.70;;;;;;10266228;28;20103;-53
2023/05/11 20:11:48;;;;;;;6.28;2.67;;;18.10;76.70;;;;;;10286772;28;20050;-55
2023/05/11 20:16:49;;;;;;;5.25;2.72;;;18.10;76.60;;;;;;10270058;28;20575;-54
2023/05/11 20:21:50;;;;;;;4.10;2.83;;;18.10;76.50;;;;;;10270249;28;20126;-54
2023/05/11 20:26:51;;;;;;;4.18;2.70;;;18.10;76.40;;;;;;10287686;28;20098;-55
2023/05/11 20:31:52;;;;;;;4.05;2.67;;;18.10;76.30;;;;;;10270360;28;20473;-54
2023/05/11 20:36:53;;;;;;;5.20;2.22;;;18.10;76.20;;;;;;10257238;28;20110;-55
2023/05/11 20:41:53;;;;;;;4.90;2.50;;;18.10;76.10;;;;;;10285771;28;20034;-54
2023/05/11 20:46:54;;;;;;;4.15;1.92;;;18.10;76.10;;;;;;10233836;28;20110;-55
2023/05/11 20:51:55;;;;;;;4.30;2.53;;;18.10;76.00;;;;;;10229225;29;20077;-53
2023/05/11 20:56:56;;;;;;;4.00;2.33;;;18.00;76.00;;;;;;10241889;28;20078;-55
2023/05/11 21:01:58;;;;;;;3.53;2.38;;;18.00;75.90;;;;;;10284498;28;20492;-55
2023/05/11 21:06:58;;;;;;;3.70;2.08;;;18.00;75.90;;;;;;10286088;28;20694;-55
2023/05/11 21:11:59;;;;;;;6.70;3.13;;;18.00;75.80;;;;;;10256834;28;20031;-54
2023/05/11 21:17:00;;;;;;;3.97;2.70;;;18.00;75.90;;;;;;10227850;28;20134;-54
2023/05/11 21:22:00;;;;;;;3.63;2.63;;;18.00;75.90;;;;;;10258440;28;20035;-54
2023/05/11 21:27:01;;;;;;;4.85;2.83;;;18.00;75.90;;;;;;10245216;29;20015;-54
2023/05/11 21:32:02;;;;;;;4.03;2.45;;;18.00;75.80;;;;;;10227666;28;20023;-54
2023/05/11 21:37:03;;;;;;;3.78;2.35;;;18.00;75.80;;;;;;10239364;28;20377;-54
2023/05/11 21:42:05;;;;;;;3.42;2.15;;;18.00;75.80;;;;;;10284754;28;20070;-56
2023/05/11 21:47:06;;;;;;;3.80;2.80;;;18.00;75.80;;;;;;10274038;28;20015;-54
2023/05/11 21:52:06;;;;;;;5.07;3.17;;;18.00;75.80;;;;;;10244471;28;20034;-55
2023/05/11 21:57:07;;;;;;;3.72;2.30;;;18.00;75.80;;;;;;10244112;28;20365;-54
2023/05/11 22:02:08;;;;;;;3.70;2.55;;;18.00;75.70;;;;;;10224993;29;20489;-54
2023/05/11 22:07:09;;;;;;;6.47;3.03;;;17.90;75.60;;;;;;10208672;28;20102;-55
2023/05/11 22:12:10;;;;;;;4.85;2.75;;;17.90;75.60;;;;;;10243530;28;20478;-54
2023/05/11 22:17:11;;;;;;;4.05;2.40;;;17.90;75.60;;;;;;10226149;29;20054;-56
2023/05/11 22:22:12;;;;;;;5.22;2.10;;;17.90;75.60;;;;;;10275339;28;20535;-55
2023/05/11 22:27:14;;;;;;;3.05;2.20;;;17.90;75.50;;;;;;10283468;28;20755;-55
2023/05/11 22:32:15;;;;;;;2.58;1.63;;;17.90;75.50;;;;;;10263398;28;20371;-55
2023/05/11 22:37:16;;;;;;;3.95;2.45;;;17.90;75.50;;;;;;10229137;28;20125;-55
2023/05/11 22:42:16;;;;;;;3.17;2.20;;;17.90;75.50;;;;;;10280582;28;20541;-53
2023/05/11 22:47:17;;;;;;;4.13;1.95;;;17.90;75.50;;;;;;10283473;28;20054;-54
2023/05/11 22:52:18;;;;;;;4.55;2.15;;;17.80;75.40;;;;;;10298002;28;20054;-55
2023/05/11 22:57:18;;;;;;;3.45;2.35;;;17.90;75.40;;;;;;10283143;28;20464;-56
2023/05/11 23:02:19;;;;;;;3.20;2.10;;;17.90;75.40;;;;;;10257282;28;20114;-57
2023/05/11 23:07:20;;;;;;;3.35;1.98;;;17.80;75.40;;;;;;10250751;28;20382;-53
2023/05/11 23:12:20;;;;;;;2.90;1.83;;;17.80;75.40;;;;;;10263858;28;20118;-54
2023/05/11 23:17:21;;;;;;;3.35;1.77;;;17.90;75.40;;;;;;10304920;28;20051;-54
2023/05/11 23:22:22;;;;;;;4.90;2.47;;;17.80;75.30;;;;;;10289737;28;20110;-54
2023/05/11 23:27:23;;;;;;;7.25;2.08;;;17.80;75.20;;;;;;10304817;28;20097;-53
2023/05/11 23:32:24;;;;;;;3.13;2.08;;;17.80;75.20;;;;;;10253342;28;20073;-55
2023/05/11 23:37:24;;;;;;;4.20;2.03;;;17.80;75.20;;;;;;10216867;29;20102;-57
2023/05/11 23:42:25;;;;;;;2.50;1.83;;;17.80;75.20;;;;;;10231940;28;20126;-53
2023/05/11 23:47:25;;;;;;;3.28;2.03;;;17.80;75.30;;;;;;10216131;29;20043;-53
2023/05/11 23:52:26;;;;;;;3.28;2.35;;;17.80;75.20;;;;;;10248744;28;20641;-55
2023/05/11 23:57:27;;;;;;;2.97;2.00;;;17.80;75.10;;;;;;10231596;29;20084;-55
